PWSweather.com
Personal Weather Stations
Station Observations
MADWEATHER
MadeiraPT

MadeiraPT

Lat: 32.735, Lon: -17.194

Elevation: 1063

Station Type: Davis VantagePro2

Latest ConditionsUpdated 9:00:00 PM GMT Friday, May 25, 2018
Currently Today's Max Today's Min Today's Average
Temperature 60.2°F15.7°C 66.9°F19.4°C 59.6°F15.3°C 62.3°F16.8°C
Dew Point 49.2°F9.6°C 53.7°F12.1°C 46.2°F7.9°C 50.4°F10.2°C
Winds 0.8 mph NE1.3 kmh NE 13.3 mph NNE21.4 kmh NNE - 4.8 mph 7.7 kmh
Wind Gusts 3.0 mph4.8 kmh 24.0 mph38.6 kmh - -
Humidity 67% 80% 48% 66%
Pressure 30.07 in1018.3 mb 30.10 in1019.3 mb 30.05 in1017.6 mb -
Hour Temp Dew Point Humidity Winds Wind Gusts Pressure Precip Precip Rate Daily Precip Total
09:00 PM 60.2°F15.7°C 49.2°F9.6°C 67% 0.8 mph NE1.3 kmh NE 3.0 mph4.8 kmh 30.07 in1018.3 mb - 0.00 in0.0 mm 0.00 in0.0 mm
08:50 PM 60.5°F15.8°C 48.3°F9.1°C 64% 4.2 mph NE6.8 kmh NE 6.0 mph9.7 kmh 30.07 in1018.3 mb - 0.00 in0.0 mm 0.00 in0.0 mm
08:40 PM 60.5°F15.8°C 48.6°F9.2°C 65% 0.9 mph NE1.4 kmh NE -- 30.07 in1018.3 mb - 0.00 in0.0 mm 0.00 in0.0 mm
08:30 PM 60.4°F15.8°C 48.2°F9.0°C 64% Calm Calm 1.0 mph1.6 kmh 30.07 in1018.3 mb - 0.00 in0.0 mm 0.00 in0.0 mm
08:20 PM 60.5°F15.8°C 47.8°F8.8°C 63% Calm Calm -- 30.07 in1018.3 mb - 0.00 in0.0 mm 0.00 in0.0 mm
08:10 PM 60.8°F16.0°C 48.1°F8.9°C 63% 4.0 mph NE6.4 kmh NE 5.0 mph8.0 kmh 30.07 in1018.3 mb - 0.00 in0.0 mm 0.00 in0.0 mm
08:00 PM 61.1°F16.2°C 48.4°F9.1°C 63% 3.2 mph ENE5.1 kmh ENE 2.0 mph3.2 kmh 30.07 in1018.3 mb - 0.00 in0.0 mm 0.00 in0.0 mm
07:50 PM 61.6°F16.4°C 49.3°F9.6°C 64% 6.5 mph NE10.5 kmh NE 11.0 mph17.7 kmh 30.07 in1018.3 mb - 0.00 in0.0 mm 0.00 in0.0 mm
07:40 PM 62.2°F16.8°C 49.8°F9.9°C 64% 3.7 mph WSW6.0 kmh WSW 10.0 mph16.1 kmh 30.06 in1017.9 mb - 0.00 in0.0 mm 0.00 in0.0 mm
07:30 PM 62.4°F16.9°C 49.6°F9.8°C 63% 3.7 mph E6.0 kmh E 6.0 mph9.7 kmh 30.06 in1017.9 mb - 0.00 in0.0 mm 0.00 in0.0 mm
07:20 PM 62.6°F17.0°C 49.4°F9.7°C 62% 1.1 mph E1.8 kmh E 2.0 mph3.2 kmh 30.05 in1017.6 mb - 0.00 in0.0 mm 0.00 in0.0 mm
07:10 PM 62.7°F17.1°C 49.5°F9.7°C 62% Calm Calm -- 30.05 in1017.6 mb - 0.00 in0.0 mm 0.00 in0.0 mm
07:00 PM 62.5°F16.9°C 48.9°F9.4°C 61% 2.2 mph E3.5 kmh E 4.0 mph6.4 kmh 30.05 in1017.6 mb - 0.00 in0.0 mm 0.00 in0.0 mm
06:50 PM 62.8°F17.1°C 48.7°F9.3°C 60% 6.7 mph E10.8 kmh E 11.0 mph17.7 kmh 30.05 in1017.6 mb - 0.00 in0.0 mm 0.00 in0.0 mm
06:40 PM 62.9°F17.2°C 49.2°F9.6°C 61% 3.4 mph E5.5 kmh E 5.0 mph8.0 kmh 30.05 in1017.6 mb - 0.00 in0.0 mm 0.00 in0.0 mm
06:30 PM 62.4°F16.9°C 49.2°F9.6°C 62% 1.5 mph E2.4 kmh E 3.0 mph4.8 kmh 30.05 in1017.6 mb - 0.00 in0.0 mm 0.00 in0.0 mm
06:20 PM 62.5°F16.9°C 49.7°F9.8°C 63% 3.2 mph E5.1 kmh E 4.0 mph6.4 kmh 30.05 in1017.6 mb - 0.00 in0.0 mm 0.00 in0.0 mm
06:10 PM 62.6°F17.0°C 49.4°F9.7°C 62% 1.8 mph E2.9 kmh E 1.0 mph1.6 kmh 30.05 in1017.6 mb - 0.00 in0.0 mm 0.00 in0.0 mm
06:00 PM 62.8°F17.1°C 49.6°F9.8°C 62% 5.6 mph ENE9.0 kmh ENE 9.0 mph14.5 kmh 30.05 in1017.6 mb - 0.00 in0.0 mm 0.00 in0.0 mm
05:50 PM 63.2°F17.3°C 49.9°F9.9°C 62% 8.7 mph NE14.0 kmh NE 13.0 mph20.9 kmh 30.05 in1017.6 mb - 0.00 in0.0 mm 0.00 in0.0 mm
05:40 PM 63.5°F17.5°C 49.9°F9.9°C 61% 7.0 mph NNE11.3 kmh NNE 10.0 mph16.1 kmh 30.05 in1017.6 mb - 0.00 in0.0 mm 0.00 in0.0 mm
05:30 PM 63.8°F17.7°C 50.1°F10.1°C 61% 2.8 mph N4.5 kmh N 5.0 mph8.0 kmh 30.05 in1017.6 mb - 0.00 in0.0 mm 0.00 in0.0 mm
05:20 PM 63.9°F17.7°C 49.7°F9.8°C 60% 1.4 mph NNE2.3 kmh NNE 11.0 mph17.7 kmh 30.05 in1017.6 mb - 0.00 in0.0 mm 0.00 in0.0 mm
05:10 PM 63.9°F17.7°C 49.3°F9.6°C 59% 2.1 mph ENE3.4 kmh ENE 7.0 mph11.3 kmh 30.05 in1017.6 mb - 0.00 in0.0 mm 0.00 in0.0 mm
05:00 PM 64.9°F18.3°C 48.8°F9.3°C 56% 2.6 mph ESE4.2 kmh ESE 4.0 mph6.4 kmh 30.05 in1017.6 mb - 0.00 in0.0 mm 0.00 in0.0 mm
04:50 PM 64.8°F18.2°C 49.2°F9.6°C 57% 3.5 mph NE5.6 kmh NE 10.0 mph16.1 kmh 30.06 in1017.9 mb - 0.00 in0.0 mm 0.00 in0.0 mm
04:40 PM 64.1°F17.8°C 49.0°F9.4°C 58% 0.8 mph NNW1.3 kmh NNW 4.0 mph6.4 kmh 30.06 in1017.9 mb - 0.00 in0.0 mm 0.00 in0.0 mm
04:30 PM 63.4°F17.4°C 48.3°F9.1°C 58% 12.8 mph NE20.6 kmh NE 16.0 mph25.7 kmh 30.07 in1018.3 mb - 0.00 in0.0 mm 0.00 in0.0 mm
04:20 PM 64.1°F17.8°C 48.5°F9.2°C 57% 6.3 mph N10.1 kmh N 14.0 mph22.5 kmh 30.07 in1018.3 mb - 0.00 in0.0 mm 0.00 in0.0 mm
04:10 PM 66.0°F18.9°C 47.9°F8.8°C 52% 11.7 mph ENE18.8 kmh ENE 15.0 mph24.1 kmh 30.07 in1018.3 mb - 0.00 in0.0 mm 0.00 in0.0 mm
04:00 PM 66.9°F19.4°C 47.6°F8.7°C 50% 9.8 mph SE15.8 kmh SE 15.0 mph24.1 kmh 30.07 in1018.3 mb - 0.00 in0.0 mm 0.00 in0.0 mm
03:50 PM 66.5°F19.2°C 46.2°F7.9°C 48% 4.6 mph ENE7.4 kmh ENE 9.0 mph14.5 kmh 30.07 in1018.3 mb - 0.00 in0.0 mm 0.00 in0.0 mm
03:40 PM 65.9°F18.8°C 47.8°F8.8°C 52% 6.9 mph E11.1 kmh E 10.0 mph16.1 kmh 30.07 in1018.3 mb - 0.00 in0.0 mm 0.00 in0.0 mm
03:30 PM 64.8°F18.2°C 47.3°F8.5°C 53% 11.9 mph ENE19.2 kmh ENE 18.0 mph29.0 kmh 30.07 in1018.3 mb - 0.00 in0.0 mm 0.00 in0.0 mm
03:20 PM 65.4°F18.6°C 47.8°F8.8°C 53% 11.3 mph NE18.2 kmh NE 18.0 mph29.0 kmh 30.07 in1018.3 mb - 0.00 in0.0 mm 0.00 in0.0 mm
03:10 PM 66.2°F19.0°C 48.0°F8.9°C 52% 7.3 mph ENE11.7 kmh ENE 14.0 mph22.5 kmh 30.07 in1018.3 mb - 0.00 in0.0 mm 0.00 in0.0 mm
03:00 PM 65.8°F18.8°C 48.6°F9.2°C 54% 7.9 mph NE12.7 kmh NE 15.0 mph24.1 kmh 30.07 in1018.3 mb - 0.00 in0.0 mm 0.00 in0.0 mm
02:50 PM 66.0°F18.9°C 47.8°F8.8°C 52% 5.4 mph NE8.7 kmh NE 19.0 mph30.6 kmh 30.07 in1018.3 mb - 0.00 in0.0 mm 0.00 in0.0 mm
02:40 PM 65.7°F18.7°C 47.6°F8.7°C 52% 12.1 mph NE19.5 kmh NE 20.0 mph32.2 kmh 30.07 in1018.3 mb - 0.00 in0.0 mm 0.00 in0.0 mm
02:30 PM 64.9°F18.3°C 46.8°F8.2°C 52% 13.3 mph NNE21.4 kmh NNE 16.0 mph25.7 kmh 30.07 in1018.3 mb - 0.00 in0.0 mm 0.00 in0.0 mm
02:20 PM 65.3°F18.5°C 48.7°F9.3°C 55% 11.8 mph NE19.0 kmh NE 16.0 mph25.7 kmh 30.07 in1018.3 mb - 0.00 in0.0 mm 0.00 in0.0 mm
02:10 PM 65.6°F18.7°C 48.5°F9.2°C 54% 10.6 mph NE17.1 kmh NE 18.0 mph29.0 kmh 30.06 in1017.9 mb - 0.00 in0.0 mm 0.00 in0.0 mm
02:00 PM 65.3°F18.5°C 49.2°F9.6°C 56% 5.8 mph NNE9.3 kmh NNE 11.0 mph17.7 kmh 30.07 in1018.3 mb - 0.00 in0.0 mm 0.00 in0.0 mm
01:50 PM 65.8°F18.8°C 49.2°F9.6°C 55% 11.4 mph NE18.3 kmh NE 22.0 mph35.4 kmh 30.07 in1018.3 mb - 0.00 in0.0 mm 0.00 in0.0 mm
01:40 PM 66.0°F18.9°C 48.4°F9.1°C 53% 9.2 mph ENE14.8 kmh ENE 13.0 mph20.9 kmh 30.07 in1018.3 mb - 0.00 in0.0 mm 0.00 in0.0 mm
01:30 PM 65.6°F18.7°C 49.5°F9.7°C 56% 8.9 mph ENE14.3 kmh ENE 11.0 mph17.7 kmh 30.07 in1018.3 mb - 0.00 in0.0 mm 0.00 in0.0 mm
01:20 PM 65.6°F18.7°C 49.0°F9.4°C 55% 9.6 mph ENE15.4 kmh ENE 11.0 mph17.7 kmh 30.07 in1018.3 mb - 0.00 in0.0 mm 0.00 in0.0 mm
01:10 PM 65.0°F18.3°C 49.4°F9.7°C 57% 10.9 mph E17.5 kmh E 15.0 mph24.1 kmh 30.07 in1018.3 mb - 0.00 in0.0 mm 0.00 in0.0 mm
01:00 PM 64.0°F17.8°C 49.9°F9.9°C 60% 13.1 mph NE21.1 kmh NE 16.0 mph25.7 kmh 30.07 in1018.3 mb - 0.00 in0.0 mm 0.00 in0.0 mm
12:50 PM 65.1°F18.4°C 50.4°F10.2°C 59% 12.6 mph NE20.3 kmh NE 24.0 mph38.6 kmh 30.07 in1018.3 mb - 0.00 in0.0 mm 0.00 in0.0 mm
12:40 PM 65.5°F18.6°C 51.3°F10.7°C 60% 10.3 mph ENE16.6 kmh ENE 16.0 mph25.7 kmh 30.07 in1018.3 mb - 0.00 in0.0 mm 0.00 in0.0 mm
12:30 PM 66.1°F18.9°C 50.4°F10.2°C 57% 12.4 mph NE20.0 kmh NE 16.0 mph25.7 kmh 30.07 in1018.3 mb - 0.00 in0.0 mm 0.00 in0.0 mm
12:20 PM 66.0°F18.9°C 51.7°F10.9°C 60% 9.4 mph E15.1 kmh E 13.0 mph20.9 kmh 30.08 in1018.6 mb - 0.00 in0.0 mm 0.00 in0.0 mm
12:10 PM 65.8°F18.8°C 52.0°F11.1°C 61% 6.2 mph E10.0 kmh E 12.0 mph19.3 kmh 30.08 in1018.6 mb - 0.00 in0.0 mm 0.00 in0.0 mm
12:00 PM 66.3°F19.1°C 51.5°F10.8°C 59% 7.9 mph ESE12.7 kmh ESE 15.0 mph24.1 kmh 30.08 in1018.6 mb - 0.00 in0.0 mm 0.00 in0.0 mm
11:50 AM 65.1°F18.4°C 53.1°F11.7°C 65% 4.2 mph S6.8 kmh S 7.0 mph11.3 kmh 30.08 in1018.6 mb - 0.00 in0.0 mm 0.00 in0.0 mm
11:40 AM 64.3°F17.9°C 51.0°F10.6°C 62% 5.1 mph SW8.2 kmh SW 7.0 mph11.3 kmh 30.08 in1018.6 mb - 0.00 in0.0 mm 0.00 in0.0 mm
11:30 AM 64.5°F18.1°C 51.6°F10.9°C 63% 5.8 mph SSW9.3 kmh SSW 7.0 mph11.3 kmh 30.08 in1018.6 mb - 0.00 in0.0 mm 0.00 in0.0 mm
11:20 AM 65.1°F18.4°C 51.8°F11.0°C 62% 3.1 mph ESE5.0 kmh ESE 5.0 mph8.0 kmh 30.08 in1018.6 mb - 0.00 in0.0 mm 0.00 in0.0 mm
11:10 AM 64.7°F18.2°C 50.1°F10.1°C 59% 11.9 mph SE19.2 kmh SE 16.0 mph25.7 kmh 30.07 in1018.3 mb - 0.00 in0.0 mm 0.00 in0.0 mm
11:00 AM 64.4°F18.0°C 50.7°F10.4°C 61% 8.7 mph SSE14.0 kmh SSE 15.0 mph24.1 kmh 30.07 in1018.3 mb - 0.00 in0.0 mm 0.00 in0.0 mm
10:50 AM 64.1°F17.8°C 49.0°F9.4°C 58% 10.9 mph SSW17.5 kmh SSW 12.0 mph19.3 kmh 30.07 in1018.3 mb - 0.00 in0.0 mm 0.00 in0.0 mm
10:40 AM 64.5°F18.1°C 49.8°F9.9°C 59% 7.8 mph S12.6 kmh S 12.0 mph19.3 kmh 30.07 in1018.3 mb - 0.00 in0.0 mm 0.00 in0.0 mm
10:30 AM 63.4°F17.4°C 50.2°F10.1°C 62% 4.0 mph SE6.4 kmh SE 5.0 mph8.0 kmh 30.07 in1018.3 mb - 0.00 in0.0 mm 0.00 in0.0 mm
10:20 AM 62.9°F17.2°C 49.2°F9.6°C 61% 11.0 mph SE17.7 kmh SE 15.0 mph24.1 kmh 30.07 in1018.3 mb - 0.00 in0.0 mm 0.00 in0.0 mm
10:10 AM 63.6°F17.6°C 49.9°F9.9°C 61% 0.4 mph W0.6 kmh W 2.0 mph3.2 kmh 30.07 in1018.3 mb - 0.00 in0.0 mm 0.00 in0.0 mm
10:00 AM 62.9°F17.2°C 50.5°F10.3°C 64% 5.1 mph W8.2 kmh W 8.0 mph12.9 kmh 30.07 in1018.3 mb - 0.00 in0.0 mm 0.00 in0.0 mm
09:50 AM 62.3°F16.8°C 50.4°F10.2°C 65% 6.3 mph W10.1 kmh W 10.0 mph16.1 kmh 30.07 in1018.3 mb - 0.00 in0.0 mm 0.00 in0.0 mm
09:40 AM 61.2°F16.2°C 49.7°F9.8°C 66% 7.4 mph W11.9 kmh W 11.0 mph17.7 kmh 30.08 in1018.6 mb - 0.00 in0.0 mm 0.00 in0.0 mm
09:30 AM 60.7°F15.9°C 49.3°F9.6°C 66% 2.0 mph W3.2 kmh W 6.0 mph9.7 kmh 30.08 in1018.6 mb - 0.00 in0.0 mm 0.00 in0.0 mm
09:20 AM 60.2°F15.7°C 49.6°F9.8°C 68% 2.4 mph W3.9 kmh W 4.0 mph6.4 kmh 30.08 in1018.6 mb - 0.00 in0.0 mm 0.00 in0.0 mm
09:10 AM 60.3°F15.7°C 50.5°F10.3°C 70% 7.9 mph W12.7 kmh W 10.0 mph16.1 kmh 30.08 in1018.6 mb - 0.00 in0.0 mm 0.00 in0.0 mm
09:00 AM 60.2°F15.7°C 50.0°F10.0°C 69% 4.9 mph W7.9 kmh W 6.0 mph9.7 kmh 30.08 in1018.6 mb - 0.00 in0.0 mm 0.00 in0.0 mm
08:50 AM 60.2°F15.7°C 51.1°F10.6°C 72% 2.9 mph W4.7 kmh W 6.0 mph9.7 kmh 30.09 in1019.0 mb - 0.00 in0.0 mm 0.00 in0.0 mm
08:40 AM 59.8°F15.4°C 50.8°F10.4°C 72% 1.7 mph W2.7 kmh W 3.0 mph4.8 kmh 30.08 in1018.6 mb - 0.00 in0.0 mm 0.00 in0.0 mm
08:30 AM 59.6°F15.3°C 51.3°F10.7°C 74% 5.6 mph W9.0 kmh W 7.0 mph11.3 kmh 30.08 in1018.6 mb - 0.00 in0.0 mm 0.00 in0.0 mm
08:20 AM 59.7°F15.4°C 51.8°F11.0°C 75% 6.2 mph WNW10.0 kmh WNW 11.0 mph17.7 kmh 30.07 in1018.3 mb - 0.00 in0.0 mm 0.00 in0.0 mm
08:10 AM 59.9°F15.5°C 52.3°F11.3°C 76% 3.6 mph NW5.8 kmh NW 11.0 mph17.7 kmh 30.07 in1018.3 mb - 0.00 in0.0 mm 0.00 in0.0 mm
08:00 AM 60.0°F15.6°C 51.7°F10.9°C 74% 5.3 mph NW8.5 kmh NW 7.0 mph11.3 kmh 30.07 in1018.3 mb - 0.00 in0.0 mm 0.00 in0.0 mm
07:50 AM 60.1°F15.6°C 51.8°F11.0°C 74% 1.5 mph NW2.4 kmh NW 2.0 mph3.2 kmh 30.07 in1018.3 mb - 0.00 in0.0 mm 0.00 in0.0 mm
07:40 AM 60.1°F15.6°C 52.5°F11.4°C 76% 4.7 mph NW7.6 kmh NW 9.0 mph14.5 kmh 30.07 in1018.3 mb - 0.00 in0.0 mm 0.00 in0.0 mm
07:30 AM 60.0°F15.6°C 52.4°F11.3°C 76% 1.8 mph WNW2.9 kmh WNW 3.0 mph4.8 kmh 30.07 in1018.3 mb - 0.00 in0.0 mm 0.00 in0.0 mm
07:20 AM 60.1°F15.6°C 52.1°F11.2°C 75% 3.0 mph WNW4.8 kmh WNW 5.0 mph8.0 kmh 30.07 in1018.3 mb - 0.00 in0.0 mm 0.00 in0.0 mm
07:10 AM 60.0°F15.6°C 51.7°F10.9°C 74% Calm Calm -- 30.07 in1018.3 mb - 0.00 in0.0 mm 0.00 in0.0 mm
07:00 AM 60.1°F15.6°C 51.8°F11.0°C 74% Calm Calm -- 30.07 in1018.3 mb - 0.00 in0.0 mm 0.00 in0.0 mm
06:50 AM 60.2°F15.7°C 51.5°F10.8°C 73% 0.1 mph NW0.2 kmh NW 1.0 mph1.6 kmh 30.07 in1018.3 mb - 0.00 in0.0 mm 0.00 in0.0 mm
06:40 AM 60.2°F15.7°C 51.9°F11.1°C 74% 1.0 mph NW1.6 kmh NW 3.0 mph4.8 kmh 30.07 in1018.3 mb - 0.00 in0.0 mm 0.00 in0.0 mm
06:30 AM 60.3°F15.7°C 52.3°F11.3°C 75% Calm Calm -- 30.07 in1018.3 mb - 0.00 in0.0 mm 0.00 in0.0 mm
06:20 AM 60.4°F15.8°C 52.1°F11.2°C 74% 0.8 mph NW1.3 kmh NW 2.0 mph3.2 kmh 30.07 in1018.3 mb - 0.00 in0.0 mm 0.00 in0.0 mm
06:10 AM 60.4°F15.8°C 51.7°F10.9°C 73% Calm Calm -- 30.06 in1017.9 mb - 0.00 in0.0 mm 0.00 in0.0 mm
06:00 AM 60.4°F15.8°C 52.1°F11.2°C 74% Calm Calm -- 30.06 in1017.9 mb - 0.00 in0.0 mm 0.00 in0.0 mm
05:50 AM 60.5°F15.8°C 52.2°F11.2°C 74% 3.6 mph NW5.8 kmh NW 9.0 mph14.5 kmh 30.06 in1017.9 mb - 0.00 in0.0 mm 0.00 in0.0 mm
05:40 AM 60.5°F15.8°C 52.2°F11.2°C 74% 4.2 mph NW6.8 kmh NW 5.0 mph8.0 kmh 30.06 in1017.9 mb - 0.00 in0.0 mm 0.00 in0.0 mm
05:30 AM 60.6°F15.9°C 51.9°F11.1°C 73% 0.1 mph NW0.2 kmh NW 1.0 mph1.6 kmh 30.06 in1017.9 mb - 0.00 in0.0 mm 0.00 in0.0 mm
05:20 AM 60.7°F15.9°C 52.0°F11.1°C 73% 2.6 mph NW4.2 kmh NW 3.0 mph4.8 kmh 30.05 in1017.6 mb - 0.00 in0.0 mm 0.00 in0.0 mm
05:10 AM 60.8°F16.0°C 52.1°F11.2°C 73% 0.3 mph NW0.5 kmh NW 3.0 mph4.8 kmh 30.05 in1017.6 mb - 0.00 in0.0 mm 0.00 in0.0 mm
05:00 AM 60.7°F15.9°C 51.6°F10.9°C 72% 2.1 mph NW3.4 kmh NW 2.0 mph3.2 kmh 30.05 in1017.6 mb - 0.00 in0.0 mm 0.00 in0.0 mm
04:50 AM 60.7°F15.9°C 51.3°F10.7°C 71% 1.1 mph NW1.8 kmh NW 1.0 mph1.6 kmh 30.05 in1017.6 mb - 0.00 in0.0 mm 0.00 in0.0 mm
04:40 AM 60.7°F15.9°C 51.6°F10.9°C 72% 0.7 mph NW1.1 kmh NW 2.0 mph3.2 kmh 30.05 in1017.6 mb - 0.00 in0.0 mm 0.00 in0.0 mm
04:30 AM 60.5°F15.8°C 51.4°F10.8°C 72% 2.4 mph NW3.9 kmh NW 4.0 mph6.4 kmh 30.05 in1017.6 mb - 0.00 in0.0 mm 0.00 in0.0 mm
04:20 AM 60.4°F15.8°C 51.3°F10.7°C 72% Calm Calm -- 30.05 in1017.6 mb - 0.00 in0.0 mm 0.00 in0.0 mm
04:10 AM 60.4°F15.8°C 52.0°F11.1°C 74% 0.4 mph NW0.6 kmh NW 3.0 mph4.8 kmh 30.05 in1017.6 mb - 0.00 in0.0 mm 0.00 in0.0 mm
04:00 AM 60.4°F15.8°C 52.1°F11.2°C 74% 0.2 mph NW0.3 kmh NW -- 30.06 in1017.9 mb - 0.00 in0.0 mm 0.00 in0.0 mm
03:50 AM 60.5°F15.8°C 52.2°F11.2°C 74% 1.9 mph NW3.1 kmh NW 5.0 mph8.0 kmh 30.05 in1017.6 mb - 0.00 in0.0 mm 0.00 in0.0 mm
03:40 AM 60.2°F15.7°C 51.9°F11.1°C 74% 1.4 mph NW2.3 kmh NW 4.0 mph6.4 kmh 30.05 in1017.6 mb - 0.00 in0.0 mm 0.00 in0.0 mm
03:30 AM 60.3°F15.7°C 52.0°F11.1°C 74% Calm Calm -- 30.05 in1017.6 mb - 0.00 in0.0 mm 0.00 in0.0 mm
03:20 AM 60.3°F15.7°C 52.0°F11.1°C 74% 3.7 mph NW6.0 kmh NW 6.0 mph9.7 kmh 30.05 in1017.6 mb - 0.00 in0.0 mm 0.00 in0.0 mm
03:10 AM 60.3°F15.7°C 52.0°F11.1°C 74% 4.0 mph NW6.4 kmh NW 6.0 mph9.7 kmh 30.05 in1017.6 mb - 0.00 in0.0 mm 0.00 in0.0 mm
03:00 AM 60.4°F15.8°C 51.7°F10.9°C 73% 2.2 mph NW3.5 kmh NW 9.0 mph14.5 kmh 30.05 in1017.6 mb - 0.00 in0.0 mm 0.00 in0.0 mm
02:50 AM 60.1°F15.6°C 51.5°F10.8°C 73% 4.8 mph NW7.7 kmh NW 6.0 mph9.7 kmh 30.06 in1017.9 mb - 0.00 in0.0 mm 0.00 in0.0 mm
02:40 AM 60.1°F15.6°C 52.2°F11.2°C 75% 4.2 mph NW6.8 kmh NW 10.0 mph16.1 kmh 30.06 in1017.9 mb - 0.00 in0.0 mm 0.00 in0.0 mm
02:30 AM 59.8°F15.4°C 52.9°F11.6°C 78% 4.3 mph WNW6.9 kmh WNW 5.0 mph8.0 kmh 30.07 in1018.3 mb - 0.00 in0.0 mm 0.00 in0.0 mm
02:20 AM 59.9°F15.5°C 53.7°F12.1°C 80% 7.8 mph WNW12.6 kmh WNW 10.0 mph16.1 kmh 30.06 in1017.9 mb - 0.00 in0.0 mm 0.00 in0.0 mm
02:10 AM 60.0°F15.6°C 53.1°F11.7°C 78% 7.4 mph WNW11.9 kmh WNW 10.0 mph16.1 kmh 30.07 in1018.3 mb - 0.00 in0.0 mm 0.00 in0.0 mm
02:00 AM 60.4°F15.8°C 52.8°F11.6°C 76% 8.3 mph WNW13.4 kmh WNW 11.0 mph17.7 kmh 30.07 in1018.3 mb - 0.00 in0.0 mm 0.00 in0.0 mm
01:50 AM 60.6°F15.9°C 52.6°F11.4°C 75% 5.7 mph NW9.2 kmh NW 10.0 mph16.1 kmh 30.07 in1018.3 mb - 0.00 in0.0 mm 0.00 in0.0 mm
01:40 AM 60.5°F15.8°C 52.9°F11.6°C 76% 3.2 mph WNW5.1 kmh WNW 15.0 mph24.1 kmh 30.07 in1018.3 mb - 0.00 in0.0 mm 0.00 in0.0 mm
01:30 AM 60.5°F15.8°C 52.2°F11.2°C 74% 4.4 mph WNW7.1 kmh WNW 6.0 mph9.7 kmh 30.07 in1018.3 mb - 0.00 in0.0 mm 0.00 in0.0 mm
01:20 AM 60.8°F16.0°C 52.5°F11.4°C 74% 6.2 mph WNW10.0 kmh WNW 9.0 mph14.5 kmh 30.08 in1018.6 mb - 0.00 in0.0 mm 0.00 in0.0 mm
01:10 AM 60.8°F16.0°C 51.3°F10.7°C 71% 5.6 mph WNW9.0 kmh WNW 7.0 mph11.3 kmh 30.08 in1018.6 mb - 0.00 in0.0 mm 0.00 in0.0 mm
01:00 AM 60.7°F15.9°C 50.4°F10.2°C 69% 6.1 mph WNW9.8 kmh WNW 7.0 mph11.3 kmh 30.09 in1019.0 mb - 0.00 in0.0 mm 0.00 in0.0 mm
12:50 AM 60.3°F15.7°C 51.3°F10.7°C 72% 4.1 mph N6.6 kmh N 6.0 mph9.7 kmh 30.09 in1019.0 mb - 0.00 in0.0 mm 0.00 in0.0 mm
12:40 AM 60.1°F15.6°C 51.0°F10.6°C 72% 0.7 mph N1.1 kmh N 3.0 mph4.8 kmh 30.09 in1019.0 mb - 0.00 in0.0 mm 0.00 in0.0 mm
12:30 AM 60.1°F15.6°C 51.0°F10.6°C 72% 2.1 mph N3.4 kmh N 4.0 mph6.4 kmh 30.09 in1019.0 mb - 0.00 in0.0 mm 0.00 in0.0 mm
12:20 AM 60.0°F15.6°C 50.6°F10.3°C 71% 4.2 mph N6.8 kmh N 6.0 mph9.7 kmh 30.09 in1019.0 mb - 0.00 in0.0 mm 0.00 in0.0 mm
12:10 AM 60.0°F15.6°C 50.5°F10.3°C 71% 0.2 mph N0.3 kmh N -- 30.10 in1019.3 mb - 0.00 in0.0 mm 0.00 in0.0 mm
12:00 AM 59.8°F15.4°C 50.8°F10.4°C 72% 0.1 mph N0.2 kmh N 1.0 mph1.6 kmh 30.10 in1019.3 mb - 0.00 in0.0 mm 0.00 in0.0 mm